sensor_id;sensor_type;location;lat;lon;timestamp;P1;durP1;ratioP1;P2;durP2;ratioP2
23449;SDS011;11897;45.438;12.128;2023-08-21T00:01:37;7.40;;;6.38;;
23449;SDS011;11897;45.438;12.128;2023-08-21T00:04:05;11.18;;;6.95;;
23449;SDS011;11897;45.438;12.128;2023-08-21T00:06:32;8.32;;;6.55;;
23449;SDS011;11897;45.438;12.128;2023-08-21T00:08:59;9.38;;;6.82;;
23449;SDS011;11897;45.438;12.128;2023-08-21T00:11:26;7.70;;;6.70;;
23449;SDS011;11897;45.438;12.128;2023-08-21T00:13:54;9.38;;;6.82;;
23449;SDS011;11897;45.438;12.128;2023-08-21T00:16:21;7.80;;;6.95;;
23449;SDS011;11897;45.438;12.128;2023-08-21T00:18:48;7.43;;;6.65;;
23449;SDS011;11897;45.438;12.128;2023-08-21T00:21:18;12.07;;;7.38;;
23449;SDS011;11897;45.438;12.128;2023-08-21T00:23:45;8.68;;;7.60;;
23449;SDS011;11897;45.438;12.128;2023-08-21T00:26:11;8.43;;;6.70;;
23449;SDS011;11897;45.438;12.128;2023-08-21T00:28:38;7.53;;;6.20;;
23449;SDS011;11897;45.438;12.128;2023-08-21T00:31:06;13.25;;;7.30;;
23449;SDS011;11897;45.438;12.128;2023-08-21T00:33:33;7.75;;;6.47;;
23449;SDS011;11897;45.438;12.128;2023-08-21T00:36:00;8.50;;;6.70;;
23449;SDS011;11897;45.438;12.128;2023-08-21T00:38:26;8.75;;;6.70;;
23449;SDS011;11897;45.438;12.128;2023-08-21T00:40:53;9.60;;;7.18;;
23449;SDS011;11897;45.438;12.128;2023-08-21T00:43:20;11.20;;;7.03;;
23449;SDS011;11897;45.438;12.128;2023-08-21T00:45:48;8.95;;;6.80;;
23449;SDS011;11897;45.438;12.128;2023-08-21T00:48:18;9.43;;;6.88;;
23449;SDS011;11897;45.438;12.128;2023-08-21T00:50:48;9.60;;;7.20;;
23449;SDS011;11897;45.438;12.128;2023-08-21T00:53:15;9.90;;;6.47;;
23449;SDS011;11897;45.438;12.128;2023-08-21T00:55:43;7.72;;;6.93;;
23449;SDS011;11897;45.438;12.128;2023-08-21T00:58:11;8.38;;;6.70;;
23449;SDS011;11897;45.438;12.128;2023-08-21T01:00:39;9.07;;;7.20;;
23449;SDS011;11897;45.438;12.128;2023-08-21T01:03:08;11.55;;;7.35;;
23449;SDS011;11897;45.438;12.128;2023-08-21T01:05:38;10.40;;;7.30;;
23449;SDS011;11897;45.438;12.128;2023-08-21T01:08:05;10.15;;;7.40;;
23449;SDS011;11897;45.438;12.128;2023-08-21T01:10:36;9.02;;;7.05;;
23449;SDS011;11897;45.438;12.128;2023-08-21T01:13:06;10.90;;;8.05;;
23449;SDS011;11897;45.438;12.128;2023-08-21T01:15:36;10.05;;;7.80;;
23449;SDS011;11897;45.438;12.128;2023-08-21T01:18:03;9.80;;;7.47;;
23449;SDS011;11897;45.438;12.128;2023-08-21T01:20:30;11.75;;;7.78;;
23449;SDS011;11897;45.438;12.128;2023-08-21T01:23:02;8.35;;;7.38;;
23449;SDS011;11897;45.438;12.128;2023-08-21T01:25:31;8.82;;;7.32;;
23449;SDS011;11897;45.438;12.128;2023-08-21T01:27:58;9.45;;;7.50;;
23449;SDS011;11897;45.438;12.128;2023-08-21T01:30:25;9.07;;;7.80;;
23449;SDS011;11897;45.438;12.128;2023-08-21T01:32:53;7.47;;;6.68;;
23449;SDS011;11897;45.438;12.128;2023-08-21T01:35:25;7.72;;;6.72;;
23449;SDS011;11897;45.438;12.128;2023-08-21T01:37:53;13.82;;;7.82;;
23449;SDS011;11897;45.438;12.128;2023-08-21T01:40:20;9.43;;;7.97;;
23449;SDS011;11897;45.438;12.128;2023-08-21T01:42:52;10.25;;;7.93;;
23449;SDS011;11897;45.438;12.128;2023-08-21T01:45:19;7.88;;;6.78;;
23449;SDS011;11897;45.438;12.128;2023-08-21T01:47:46;10.18;;;7.47;;
23449;SDS011;11897;45.438;12.128;2023-08-21T01:50:13;8.18;;;7.20;;
23449;SDS011;11897;45.438;12.128;2023-08-21T01:52:40;19.08;;;7.43;;
23449;SDS011;11897;45.438;12.128;2023-08-21T01:55:08;12.07;;;7.53;;
23449;SDS011;11897;45.438;12.128;2023-08-21T01:57:35;9.35;;;7.32;;
23449;SDS011;11897;45.438;12.128;2023-08-21T02:00:04;11.23;;;8.13;;
23449;SDS011;11897;45.438;12.128;2023-08-21T02:02:39;8.45;;;7.22;;
23449;SDS011;11897;45.438;12.128;2023-08-21T02:05:06;9.93;;;7.47;;
23449;SDS011;11897;45.438;12.128;2023-08-21T02:07:33;9.45;;;7.43;;
23449;SDS011;11897;45.438;12.128;2023-08-21T02:10:01;8.98;;;7.43;;
23449;SDS011;11897;45.438;12.128;2023-08-21T02:12:33;9.85;;;7.22;;
23449;SDS011;11897;45.438;12.128;2023-08-21T02:15:01;8.48;;;7.35;;
23449;SDS011;11897;45.438;12.128;2023-08-21T02:17:33;8.82;;;7.13;;
23449;SDS011;11897;45.438;12.128;2023-08-21T02:19:59;9.20;;;7.15;;
23449;SDS011;11897;45.438;12.128;2023-08-21T02:22:26;14.40;;;7.13;;
23449;SDS011;11897;45.438;12.128;2023-08-21T02:24:53;14.55;;;6.50;;
23449;SDS011;11897;45.438;12.128;2023-08-21T02:27:20;7.63;;;6.25;;
23449;SDS011;11897;45.438;12.128;2023-08-21T02:29:46;10.05;;;5.70;;
23449;SDS011;11897;45.438;12.128;2023-08-21T02:32:13;8.35;;;5.95;;
23449;SDS011;11897;45.438;12.128;2023-08-21T02:34:41;7.53;;;5.30;;
23449;SDS011;11897;45.438;12.128;2023-08-21T02:37:07;8.40;;;5.57;;
23449;SDS011;11897;45.438;12.128;2023-08-21T02:39:37;8.52;;;6.38;;
23449;SDS011;11897;45.438;12.128;2023-08-21T02:42:03;10.23;;;6.32;;
23449;SDS011;11897;45.438;12.128;2023-08-21T02:44:30;6.75;;;5.03;;
23449;SDS011;11897;45.438;12.128;2023-08-21T02:46:57;7.32;;;5.95;;
23449;SDS011;11897;45.438;12.128;2023-08-21T02:49:25;5.65;;;5.10;;
23449;SDS011;11897;45.438;12.128;2023-08-21T02:51:53;8.43;;;5.60;;
23449;SDS011;11897;45.438;12.128;2023-08-21T02:54:20;6.03;;;5.43;;
23449;SDS011;11897;45.438;12.128;2023-08-21T02:56:46;9.13;;;6.05;;
23449;SDS011;11897;45.438;12.128;2023-08-21T02:59:13;20.38;;;5.90;;
23449;SDS011;11897;45.438;12.128;2023-08-21T03:01:40;8.13;;;5.53;;
23449;SDS011;11897;45.438;12.128;2023-08-21T03:04:07;10.45;;;5.70;;
23449;SDS011;11897;45.438;12.128;2023-08-21T03:06:35;9.93;;;6.03;;
23449;SDS011;11897;45.438;12.128;2023-08-21T03:09:04;6.75;;;5.00;;
23449;SDS011;11897;45.438;12.128;2023-08-21T03:11:31;7.88;;;6.50;;
23449;SDS011;11897;45.438;12.128;2023-08-21T03:13:58;8.60;;;7.03;;
23449;SDS011;11897;45.438;12.128;2023-08-21T03:16:24;7.85;;;6.82;;
23449;SDS011;11897;45.438;12.128;2023-08-21T03:18:54;7.25;;;5.95;;
23449;SDS011;11897;45.438;12.128;2023-08-21T03:21:22;4.47;;;2.65;;
23449;SDS011;11897;45.438;12.128;2023-08-21T03:23:50;3.13;;;2.08;;
23449;SDS011;11897;45.438;12.128;2023-08-21T03:26:18;1.73;;;1.23;;
23449;SDS011;11897;45.438;12.128;2023-08-21T03:28:45;1.40;;;1.30;;
23449;SDS011;11897;45.438;12.128;2023-08-21T03:31:12;1.58;;;1.30;;
23449;SDS011;11897;45.438;12.128;2023-08-21T03:33:41;2.35;;;1.52;;
23449;SDS011;11897;45.438;12.128;2023-08-21T03:36:08;3.15;;;1.88;;
23449;SDS011;11897;45.438;12.128;2023-08-21T03:38:35;1.88;;;1.58;;
23449;SDS011;11897;45.438;12.128;2023-08-21T03:41:02;3.28;;;1.50;;
23449;SDS011;11897;45.438;12.128;2023-08-21T03:43:32;2.28;;;1.58;;
23449;SDS011;11897;45.438;12.128;2023-08-21T03:45:59;1.73;;;1.30;;
23449;SDS011;11897;45.438;12.128;2023-08-21T03:48:26;1.85;;;0.90;;
23449;SDS011;11897;45.438;12.128;2023-08-21T03:50:53;1.95;;;1.40;;
23449;SDS011;11897;45.438;12.128;2023-08-21T03:53:19;2.65;;;1.67;;
23449;SDS011;11897;45.438;12.128;2023-08-21T03:55:46;1.00;;;0.90;;
23449;SDS011;11897;45.438;12.128;2023-08-21T03:58:13;1.98;;;1.40;;
23449;SDS011;11897;45.438;12.128;2023-08-21T04:00:41;2.45;;;1.67;;
23449;SDS011;11897;45.438;12.128;2023-08-21T04:03:08;3.08;;;1.88;;
23449;SDS011;11897;45.438;12.128;2023-08-21T04:05:35;1.92;;;1.33;;
23449;SDS011;11897;45.438;12.128;2023-08-21T04:08:06;2.15;;;1.65;;
23449;SDS011;11897;45.438;12.128;2023-08-21T04:10:34;1.70;;;1.27;;
23449;SDS011;11897;45.438;12.128;2023-08-21T04:13:01;1.55;;;1.45;;
23449;SDS011;11897;45.438;12.128;2023-08-21T04:15:28;1.58;;;1.25;;
23449;SDS011;11897;45.438;12.128;2023-08-21T04:17:57;1.73;;;1.48;;
23449;SDS011;11897;45.438;12.128;2023-08-21T04:20:23;2.35;;;1.45;;
23449;SDS011;11897;45.438;12.128;2023-08-21T04:22:50;2.30;;;1.50;;
23449;SDS011;11897;45.438;12.128;2023-08-21T04:25:17;2.47;;;1.45;;
23449;SDS011;11897;45.438;12.128;2023-08-21T04:27:44;2.42;;;1.38;;
23449;SDS011;11897;45.438;12.128;2023-08-21T04:30:11;2.38;;;1.60;;
23449;SDS011;11897;45.438;12.128;2023-08-21T04:32:38;1.75;;;0.98;;
23449;SDS011;11897;45.438;12.128;2023-08-21T04:35:08;2.70;;;1.40;;
23449;SDS011;11897;45.438;12.128;2023-08-21T04:37:37;3.08;;;1.60;;
23449;SDS011;11897;45.438;12.128;2023-08-21T04:40:07;2.60;;;1.50;;
23449;SDS011;11897;45.438;12.128;2023-08-21T04:42:34;1.55;;;1.10;;
23449;SDS011;11897;45.438;12.128;2023-08-21T04:45:02;1.73;;;1.10;;
23449;SDS011;11897;45.438;12.128;2023-08-21T04:47:32;1.25;;;0.80;;
23449;SDS011;11897;45.438;12.128;2023-08-21T04:49:59;1.80;;;1.17;;
23449;SDS011;11897;45.438;12.128;2023-08-21T04:52:29;1.88;;;1.02;;
23449;SDS011;11897;45.438;12.128;2023-08-21T04:54:56;1.58;;;0.90;;
23449;SDS011;11897;45.438;12.128;2023-08-21T04:57:23;1.90;;;0.88;;
23449;SDS011;11897;45.438;12.128;2023-08-21T04:59:50;1.13;;;0.85;;
23449;SDS011;11897;45.438;12.128;2023-08-21T05:02:18;1.45;;;1.05;;
23449;SDS011;11897;45.438;12.128;2023-08-21T05:04:45;1.77;;;1.10;;
23449;SDS011;11897;45.438;12.128;2023-08-21T05:07:12;1.20;;;1.10;;
23449;SDS011;11897;45.438;12.128;2023-08-21T05:09:40;1.38;;;1.27;;
23449;SDS011;11897;45.438;12.128;2023-08-21T05:12:09;1.70;;;1.25;;
23449;SDS011;11897;45.438;12.128;2023-08-21T05:14:36;1.30;;;1.05;;
23449;SDS011;11897;45.438;12.128;2023-08-21T05:17:03;1.55;;;1.25;;
23449;SDS011;11897;45.438;12.128;2023-08-21T05:19:30;1.58;;;1.10;;
23449;SDS011;11897;45.438;12.128;2023-08-21T05:21:56;1.42;;;1.13;;
23449;SDS011;11897;45.438;12.128;2023-08-21T05:24:23;1.13;;;0.88;;
23449;SDS011;11897;45.438;12.128;2023-08-21T05:26:58;0.93;;;0.82;;
23449;SDS011;11897;45.438;12.128;2023-08-21T05:29:25;1.90;;;1.63;;
23449;SDS011;11897;45.438;12.128;2023-08-21T05:31:52;1.95;;;1.27;;
23449;SDS011;11897;45.438;12.128;2023-08-21T05:34:19;2.55;;;1.70;;
23449;SDS011;11897;45.438;12.128;2023-08-21T05:36:46;1.67;;;1.10;;
23449;SDS011;11897;45.438;12.128;2023-08-21T05:39:15;1.55;;;1.00;;
23449;SDS011;11897;45.438;12.128;2023-08-21T05:41:41;1.52;;;1.17;;
23449;SDS011;11897;45.438;12.128;2023-08-21T05:44:10;0.70;;;0.60;;
23449;SDS011;11897;45.438;12.128;2023-08-21T05:46:36;2.65;;;1.08;;
23449;SDS011;11897;45.438;12.128;2023-08-21T05:49:04;2.28;;;1.33;;
23449;SDS011;11897;45.438;12.128;2023-08-21T05:51:31;2.10;;;1.13;;
23449;SDS011;11897;45.438;12.128;2023-08-21T05:54:04;1.75;;;1.33;;
23449;SDS011;11897;45.438;12.128;2023-08-21T05:56:31;1.90;;;1.35;;
23449;SDS011;11897;45.438;12.128;2023-08-21T05:58:58;1.70;;;1.30;;
23449;SDS011;11897;45.438;12.128;2023-08-21T06:01:26;1.85;;;1.40;;
23449;SDS011;11897;45.438;12.128;2023-08-21T06:03:53;1.65;;;1.10;;
23449;SDS011;11897;45.438;12.128;2023-08-21T06:06:38;2.25;;;1.40;;
23449;SDS011;11897;45.438;12.128;2023-08-21T06:09:06;1.73;;;1.58;;
23449;SDS011;11897;45.438;12.128;2023-08-21T06:11:33;2.28;;;1.42;;
23449;SDS011;11897;45.438;12.128;2023-08-21T06:13:59;1.75;;;1.50;;
23449;SDS011;11897;45.438;12.128;2023-08-21T06:16:28;1.33;;;1.00;;
23449;SDS011;11897;45.438;12.128;2023-08-21T06:18:56;1.15;;;0.90;;
23449;SDS011;11897;45.438;12.128;2023-08-21T06:21:25;1.80;;;1.20;;
23449;SDS011;11897;45.438;12.128;2023-08-21T06:23:52;1.48;;;1.05;;
23449;SDS011;11897;45.438;12.128;2023-08-21T06:26:19;1.95;;;1.20;;
23449;SDS011;11897;45.438;12.128;2023-08-21T06:28:46;1.67;;;1.05;;
23449;SDS011;11897;45.438;12.128;2023-08-21T06:31:13;0.82;;;0.73;;
23449;SDS011;11897;45.438;12.128;2023-08-21T06:33:42;1.27;;;1.17;;
23449;SDS011;11897;45.438;12.128;2023-08-21T06:36:10;1.77;;;1.20;;
23449;SDS011;11897;45.438;12.128;2023-08-21T06:38:36;1.77;;;1.23;;
23449;SDS011;11897;45.438;12.128;2023-08-21T06:41:05;1.35;;;0.98;;
23449;SDS011;11897;45.438;12.128;2023-08-21T06:43:32;1.23;;;1.13;;
23449;SDS011;11897;45.438;12.128;2023-08-21T06:45:58;1.20;;;1.00;;
23449;SDS011;11897;45.438;12.128;2023-08-21T06:48:25;0.80;;;0.70;;
23449;SDS011;11897;45.438;12.128;2023-08-21T06:50:55;1.00;;;0.93;;
23449;SDS011;11897;45.438;12.128;2023-08-21T06:53:22;2.20;;;1.30;;
23449;SDS011;11897;45.438;12.128;2023-08-21T06:55:49;1.80;;;1.25;;
23449;SDS011;11897;45.438;12.128;2023-08-21T06:58:15;1.63;;;1.15;;
23449;SDS011;11897;45.438;12.128;2023-08-21T07:00:42;1.13;;;1.02;;
23449;SDS011;11897;45.438;12.128;2023-08-21T07:03:09;1.75;;;1.33;;
23449;SDS011;11897;45.438;12.128;2023-08-21T07:05:35;1.10;;;1.00;;
23449;SDS011;11897;45.438;12.128;2023-08-21T07:08:04;1.13;;;0.95;;
23449;SDS011;11897;45.438;12.128;2023-08-21T07:10:35;1.73;;;0.90;;
23449;SDS011;11897;45.438;12.128;2023-08-21T07:13:03;1.20;;;1.00;;
23449;SDS011;11897;45.438;12.128;2023-08-21T07:15:30;1.48;;;1.13;;
23449;SDS011;11897;45.438;12.128;2023-08-21T07:17:56;1.40;;;1.08;;
23449;SDS011;11897;45.438;12.128;2023-08-21T07:20:23;1.08;;;0.90;;
23449;SDS011;11897;45.438;12.128;2023-08-21T07:22:50;1.85;;;0.98;;
23449;SDS011;11897;45.438;12.128;2023-08-21T07:25:18;0.93;;;0.77;;
23449;SDS011;11897;45.438;12.128;2023-08-21T07:27:45;1.50;;;1.23;;
23449;SDS011;11897;45.438;12.128;2023-08-21T07:30:11;1.88;;;1.00;;
23449;SDS011;11897;45.438;12.128;2023-08-21T07:32:38;1.17;;;1.05;;
23449;SDS011;11897;45.438;12.128;2023-08-21T07:35:05;1.83;;;1.42;;
23449;SDS011;11897;45.438;12.128;2023-08-21T07:37:32;2.08;;;1.10;;
23449;SDS011;11897;45.438;12.128;2023-08-21T07:39:58;1.10;;;0.88;;
23449;SDS011;11897;45.438;12.128;2023-08-21T07:42:27;1.75;;;0.90;;
23449;SDS011;11897;45.438;12.128;2023-08-21T07:44:53;0.82;;;0.82;;
23449;SDS011;11897;45.438;12.128;2023-08-21T07:47:20;1.38;;;1.27;;
23449;SDS011;11897;45.438;12.128;2023-08-21T07:49:47;1.23;;;1.13;;
23449;SDS011;11897;45.438;12.128;2023-08-21T07:52:14;1.30;;;1.20;;
23449;SDS011;11897;45.438;12.128;2023-08-21T07:54:41;1.67;;;1.20;;
23449;SDS011;11897;45.438;12.128;2023-08-21T07:57:08;1.17;;;1.08;;
23449;SDS011;11897;45.438;12.128;2023-08-21T07:59:36;1.60;;;1.40;;
23449;SDS011;11897;45.438;12.128;2023-08-21T08:02:03;1.15;;;1.05;;
23449;SDS011;11897;45.438;12.128;2023-08-21T08:04:29;2.00;;;1.23;;
23449;SDS011;11897;45.438;12.128;2023-08-21T08:06:56;1.20;;;1.10;;
23449;SDS011;11897;45.438;12.128;2023-08-21T08:09:23;1.35;;;0.93;;
23449;SDS011;11897;45.438;12.128;2023-08-21T08:11:50;1.23;;;1.13;;
23449;SDS011;11897;45.438;12.128;2023-08-21T08:14:17;1.65;;;1.02;;
23449;SDS011;11897;45.438;12.128;2023-08-21T08:16:45;1.27;;;1.13;;
23449;SDS011;11897;45.438;12.128;2023-08-21T08:19:11;1.75;;;1.00;;
23449;SDS011;11897;45.438;12.128;2023-08-21T08:21:38;1.73;;;1.10;;
23449;SDS011;11897;45.438;12.128;2023-08-21T08:24:05;1.67;;;1.30;;
23449;SDS011;11897;45.438;12.128;2023-08-21T08:26:33;1.30;;;1.20;;
23449;SDS011;11897;45.438;12.128;2023-08-21T08:29:00;1.15;;;0.98;;
23449;SDS011;11897;45.438;12.128;2023-08-21T08:31:27;1.83;;;1.00;;
23449;SDS011;11897;45.438;12.128;2023-08-21T08:33:56;1.58;;;1.20;;
23449;SDS011;11897;45.438;12.128;2023-08-21T08:36:23;1.40;;;1.30;;
23449;SDS011;11897;45.438;12.128;2023-08-21T08:38:49;1.42;;;1.10;;
23449;SDS011;11897;45.438;12.128;2023-08-21T08:41:18;1.20;;;1.10;;
23449;SDS011;11897;45.438;12.128;2023-08-21T08:43:50;3.08;;;1.30;;
23449;SDS011;11897;45.438;12.128;2023-08-21T08:46:17;1.50;;;1.05;;
23449;SDS011;11897;45.438;12.128;2023-08-21T08:48:43;1.13;;;1.02;;
23449;SDS011;11897;45.438;12.128;2023-08-21T08:51:11;1.10;;;1.00;;
23449;SDS011;11897;45.438;12.128;2023-08-21T08:53:38;1.70;;;1.15;;
23449;SDS011;11897;45.438;12.128;2023-08-21T08:56:05;1.92;;;1.17;;
23449;SDS011;11897;45.438;12.128;2023-08-21T08:58:41;1.35;;;1.25;;
23449;SDS011;11897;45.438;12.128;2023-08-21T09:01:08;1.50;;;1.00;;
23449;SDS011;11897;45.438;12.128;2023-08-21T09:03:36;1.63;;;1.23;;
23449;SDS011;11897;45.438;12.128;2023-08-21T09:06:02;2.17;;;1.30;;
23449;SDS011;11897;45.438;12.128;2023-08-21T09:08:31;1.75;;;1.40;;
23449;SDS011;11897;45.438;12.128;2023-08-21T09:11:00;1.02;;;0.90;;
23449;SDS011;11897;45.438;12.128;2023-08-21T09:13:27;1.48;;;1.23;;
23449;SDS011;11897;45.438;12.128;2023-08-21T09:15:54;1.02;;;1.00;;
23449;SDS011;11897;45.438;12.128;2023-08-21T09:18:21;1.50;;;1.17;;
23449;SDS011;11897;45.438;12.128;2023-08-21T09:20:48;0.98;;;0.90;;
23449;SDS011;11897;45.438;12.128;2023-08-21T09:23:15;1.80;;;1.08;;
23449;SDS011;11897;45.438;12.128;2023-08-21T09:25:45;0.82;;;0.77;;
23449;SDS011;11897;45.438;12.128;2023-08-21T09:28:18;1.85;;;1.40;;
23449;SDS011;11897;45.438;12.128;2023-08-21T09:30:46;2.17;;;1.30;;
23449;SDS011;11897;45.438;12.128;2023-08-21T09:33:13;1.50;;;1.40;;
23449;SDS011;11897;45.438;12.128;2023-08-21T09:35:43;1.77;;;1.27;;
23449;SDS011;11897;45.438;12.128;2023-08-21T09:38:10;0.85;;;0.70;;
23449;SDS011;11897;45.438;12.128;2023-08-21T09:40:38;1.52;;;1.25;;
23449;SDS011;11897;45.438;12.128;2023-08-21T09:43:07;1.17;;;1.08;;
23449;SDS011;11897;45.438;12.128;2023-08-21T09:45:35;1.02;;;0.90;;
23449;SDS011;11897;45.438;12.128;2023-08-21T09:48:03;1.27;;;0.95;;
23449;SDS011;11897;45.438;12.128;2023-08-21T09:50:31;1.50;;;0.90;;
23449;SDS011;11897;45.438;12.128;2023-08-21T09:52:57;1.40;;;1.10;;
23449;SDS011;11897;45.438;12.128;2023-08-21T09:55:26;1.40;;;0.93;;
23449;SDS011;11897;45.438;12.128;2023-08-21T09:57:56;0.77;;;0.77;;
23449;SDS011;11897;45.438;12.128;2023-08-21T10:00:28;1.48;;;1.25;;
23449;SDS011;11897;45.438;12.128;2023-08-21T10:02:55;1.50;;;0.90;;
23449;SDS011;11897;45.438;12.128;2023-08-21T10:05:25;1.25;;;1.05;;
23449;SDS011;11897;45.438;12.128;2023-08-21T10:07:52;1.17;;;1.08;;
23449;SDS011;11897;45.438;12.128;2023-08-21T10:10:20;1.45;;;1.25;;
23449;SDS011;11897;45.438;12.128;2023-08-21T10:12:47;1.40;;;1.10;;
23449;SDS011;11897;45.438;12.128;2023-08-21T10:15:14;1.45;;;1.23;;
23449;SDS011;11897;45.438;12.128;2023-08-21T10:17:43;1.17;;;1.00;;
23449;SDS011;11897;45.438;12.128;2023-08-21T10:20:10;1.20;;;0.90;;
23449;SDS011;11897;45.438;12.128;2023-08-21T10:22:38;0.85;;;0.77;;
23449;SDS011;11897;45.438;12.128;2023-08-21T10:25:17;1.10;;;1.00;;
23449;SDS011;11897;45.438;12.128;2023-08-21T10:27:45;0.90;;;0.80;;
23449;SDS011;11897;45.438;12.128;2023-08-21T10:30:15;1.00;;;0.82;;
23449;SDS011;11897;45.438;12.128;2023-08-21T10:32:47;1.70;;;0.98;;
23449;SDS011;11897;45.438;12.128;2023-08-21T10:35:14;1.58;;;1.10;;
23449;SDS011;11897;45.438;12.128;2023-08-21T10:40:30;1.05;;;0.95;;
23449;SDS011;11897;45.438;12.128;2023-08-21T10:42:58;1.25;;;1.00;;
23449;SDS011;11897;45.438;12.128;2023-08-21T10:45:26;1.80;;;1.25;;
23449;SDS011;11897;45.438;12.128;2023-08-21T10:47:54;1.50;;;1.15;;
23449;SDS011;11897;45.438;12.128;2023-08-21T10:50:22;1.30;;;0.95;;
23449;SDS011;11897;45.438;12.128;2023-08-21T10:52:48;1.17;;;1.05;;
23449;SDS011;11897;45.438;12.128;2023-08-21T10:55:17;3.20;;;1.35;;
23449;SDS011;11897;45.438;12.128;2023-08-21T10:57:45;1.45;;;0.90;;
23449;SDS011;11897;45.438;12.128;2023-08-21T11:00:13;0.82;;;0.75;;
23449;SDS011;11897;45.438;12.128;2023-08-21T11:02:40;1.50;;;1.10;;
23449;SDS011;11897;45.438;12.128;2023-08-21T11:05:09;1.40;;;1.30;;
23449;SDS011;11897;45.438;12.128;2023-08-21T11:07:36;1.10;;;1.00;;
23449;SDS011;11897;45.438;12.128;2023-08-21T11:10:03;1.30;;;1.20;;
23449;SDS011;11897;45.438;12.128;2023-08-21T11:12:30;1.38;;;1.27;;
23449;SDS011;11897;45.438;12.128;2023-08-21T11:14:57;1.02;;;0.95;;
23449;SDS011;11897;45.438;12.128;2023-08-21T11:17:24;1.30;;;1.20;;
23449;SDS011;11897;45.438;12.128;2023-08-21T11:19:50;1.50;;;1.13;;
23449;SDS011;11897;45.438;12.128;2023-08-21T11:22:19;1.40;;;1.30;;
23449;SDS011;11897;45.438;12.128;2023-08-21T11:24:46;1.70;;;1.23;;
23449;SDS011;11897;45.438;12.128;2023-08-21T11:27:14;1.50;;;1.05;;
23449;SDS011;11897;45.438;12.128;2023-08-21T11:29:42;1.23;;;1.08;;
23449;SDS011;11897;45.438;12.128;2023-08-21T11:32:09;1.38;;;1.27;;
23449;SDS011;11897;45.438;12.128;2023-08-21T11:34:36;1.15;;;1.05;;
23449;SDS011;11897;45.438;12.128;2023-08-21T11:37:03;1.70;;;1.38;;
23449;SDS011;11897;45.438;12.128;2023-08-21T11:39:40;1.15;;;0.93;;
23449;SDS011;11897;45.438;12.128;2023-08-21T11:42:13;1.40;;;1.13;;
23449;SDS011;11897;45.438;12.128;2023-08-21T11:44:43;1.38;;;1.27;;
23449;SDS011;11897;45.438;12.128;2023-08-21T11:47:14;1.02;;;0.90;;
23449;SDS011;11897;45.438;12.128;2023-08-21T11:49:41;1.38;;;1.20;;
23449;SDS011;11897;45.438;12.128;2023-08-21T11:52:10;1.42;;;0.98;;
23449;SDS011;11897;45.438;12.128;2023-08-21T11:54:37;5.03;;;1.58;;
23449;SDS011;11897;45.438;12.128;2023-08-21T11:57:09;1.42;;;1.10;;
23449;SDS011;11897;45.438;12.128;2023-08-21T11:59:38;1.58;;;1.15;;
23449;SDS011;11897;45.438;12.128;2023-08-21T12:02:08;1.23;;;1.00;;
23449;SDS011;11897;45.438;12.128;2023-08-21T12:04:35;1.65;;;1.20;;
23449;SDS011;11897;45.438;12.128;2023-08-21T12:07:02;1.60;;;1.17;;
23449;SDS011;11897;45.438;12.128;2023-08-21T12:09:29;1.92;;;1.45;;
23449;SDS011;11897;45.438;12.128;2023-08-21T12:11:56;1.45;;;1.10;;
23449;SDS011;11897;45.438;12.128;2023-08-21T12:14:24;1.42;;;1.05;;
23449;SDS011;11897;45.438;12.128;2023-08-21T12:16:52;1.27;;;1.10;;
23449;SDS011;11897;45.438;12.128;2023-08-21T12:19:21;1.55;;;1.20;;
23449;SDS011;11897;45.438;12.128;2023-08-21T12:21:48;1.50;;;1.40;;
23449;SDS011;11897;45.438;12.128;2023-08-21T12:24:15;1.42;;;1.17;;
23449;SDS011;11897;45.438;12.128;2023-08-21T12:26:42;1.58;;;1.30;;
23449;SDS011;11897;45.438;12.128;2023-08-21T12:29:09;1.65;;;1.05;;
23449;SDS011;11897;45.438;12.128;2023-08-21T12:31:37;3.25;;;1.98;;
23449;SDS011;11897;45.438;12.128;2023-08-21T12:34:04;1.15;;;0.85;;
23449;SDS011;11897;45.438;12.128;2023-08-21T12:36:30;1.98;;;1.52;;
23449;SDS011;11897;45.438;12.128;2023-08-21T12:38:57;1.90;;;1.33;;
23449;SDS011;11897;45.438;12.128;2023-08-21T12:41:24;1.30;;;1.20;;
23449;SDS011;11897;45.438;12.128;2023-08-21T12:43:50;1.20;;;1.05;;
23449;SDS011;11897;45.438;12.128;2023-08-21T12:46:17;1.30;;;1.20;;
23449;SDS011;11897;45.438;12.128;2023-08-21T12:48:45;1.92;;;1.60;;
23449;SDS011;11897;45.438;12.128;2023-08-21T12:51:12;1.40;;;1.30;;
23449;SDS011;11897;45.438;12.128;2023-08-21T12:53:39;1.10;;;1.00;;
23449;SDS011;11897;45.438;12.128;2023-08-21T12:56:06;1.88;;;1.48;;
23449;SDS011;11897;45.438;12.128;2023-08-21T12:58:33;1.42;;;1.20;;
23449;SDS011;11897;45.438;12.128;2023-08-21T13:00:59;1.33;;;1.20;;
23449;SDS011;11897;45.438;12.128;2023-08-21T13:03:28;3.65;;;1.50;;
23449;SDS011;11897;45.438;12.128;2023-08-21T13:05:56;1.40;;;1.15;;
23449;SDS011;11897;45.438;12.128;2023-08-21T13:08:23;1.02;;;0.93;;
23449;SDS011;11897;45.438;12.128;2023-08-21T13:10:49;1.77;;;1.33;;
23449;SDS011;11897;45.438;12.128;2023-08-21T13:13:16;1.92;;;1.25;;
23449;SDS011;11897;45.438;12.128;2023-08-21T13:15:43;1.35;;;1.25;;
23449;SDS011;11897;45.438;12.128;2023-08-21T13:18:12;2.47;;;1.88;;
23449;SDS011;11897;45.438;12.128;2023-08-21T13:20:40;1.60;;;1.33;;
23449;SDS011;11897;45.438;12.128;2023-08-21T13:23:09;1.05;;;0.95;;
23449;SDS011;11897;45.438;12.128;2023-08-21T13:25:36;1.63;;;1.27;;
23449;SDS011;11897;45.438;12.128;2023-08-21T13:28:02;1.23;;;0.93;;
23449;SDS011;11897;45.438;12.128;2023-08-21T13:30:30;1.30;;;1.20;;
23449;SDS011;11897;45.438;12.128;2023-08-21T13:32:57;1.83;;;1.40;;
23449;SDS011;11897;45.438;12.128;2023-08-21T13:35:24;1.38;;;1.27;;
23449;SDS011;11897;45.438;12.128;2023-08-21T13:37:51;1.42;;;1.30;;
23449;SDS011;11897;45.438;12.128;2023-08-21T13:40:19;1.50;;;1.40;;
23449;SDS011;11897;45.438;12.128;2023-08-21T13:42:47;1.75;;;1.33;;
23449;SDS011;11897;45.438;12.128;2023-08-21T13:45:15;1.45;;;1.27;;
23449;SDS011;11897;45.438;12.128;2023-08-21T13:47:42;2.08;;;1.38;;
23449;SDS011;11897;45.438;12.128;2023-08-21T13:50:11;2.13;;;1.27;;
23449;SDS011;11897;45.438;12.128;2023-08-21T13:52:38;4.18;;;1.33;;
23449;SDS011;11897;45.438;12.128;2023-08-21T13:55:05;1.30;;;1.17;;
23449;SDS011;11897;45.438;12.128;2023-08-21T13:57:33;1.45;;;1.00;;
23449;SDS011;11897;45.438;12.128;2023-08-21T13:59:59;1.20;;;1.10;;
23449;SDS011;11897;45.438;12.128;2023-08-21T14:02:29;1.50;;;1.23;;
23449;SDS011;11897;45.438;12.128;2023-08-21T14:04:56;1.75;;;1.55;;
23449;SDS011;11897;45.438;12.128;2023-08-21T14:07:23;1.15;;;1.05;;
23449;SDS011;11897;45.438;12.128;2023-08-21T14:09:51;1.52;;;1.42;;
23449;SDS011;11897;45.438;12.128;2023-08-21T14:12:18;1.30;;;1.10;;
23449;SDS011;11897;45.438;12.128;2023-08-21T14:14:47;1.10;;;1.00;;
23449;SDS011;11897;45.438;12.128;2023-08-21T14:17:13;1.17;;;1.08;;
23449;SDS011;11897;45.438;12.128;2023-08-21T14:19:40;1.30;;;1.20;;
23449;SDS011;11897;45.438;12.128;2023-08-21T14:22:08;1.38;;;1.10;;
23449;SDS011;11897;45.438;12.128;2023-08-21T14:24:34;1.35;;;1.05;;
23449;SDS011;11897;45.438;12.128;2023-08-21T14:27:01;1.98;;;1.10;;
23449;SDS011;11897;45.438;12.128;2023-08-21T14:29:28;1.10;;;1.00;;
23449;SDS011;11897;45.438;12.128;2023-08-21T14:31:57;2.22;;;1.33;;
23449;SDS011;11897;45.438;12.128;2023-08-21T14:34:25;1.17;;;0.90;;
23449;SDS011;11897;45.438;12.128;2023-08-21T14:36:53;1.35;;;1.08;;
23449;SDS011;11897;45.438;12.128;2023-08-21T14:39:22;1.67;;;1.00;;